Time;durP1;ratioP1;P1;durP2;ratioP2;P2;SDS_P1;SDS_P2;PMS_P1;PMS_P2;Temp;Humidity;BMP_temperature;BMP_pressure;BME280_temperature;BME280_humidity;BME280_pressure;Samples;Min_cycle;Max_cycle;Signal;HPM_P1;HPM_P2
2023/05/26 00:02:15;;;;;;;12.73;5.70;;;;;;;;;;7373163;19;20093;-72
2023/05/26 00:04:43;;;;;;;17.52;6.03;;;;;;;;;;7369207;19;20543;-71
2023/05/26 00:07:09;;;;;;;11.68;6.20;;;;;;;;;;7387782;19;20360;-72
2023/05/26 00:09:34;;;;;;;11.57;5.90;;;;;;;;;;7364708;19;20014;-72
2023/05/26 00:12:01;;;;;;;11.57;5.90;;;;;;;;;;7365054;19;20015;-72
2023/05/26 00:14:26;;;;;;;12.45;5.93;;;;;;;;;;7365113;19;20089;-72
2023/05/26 00:16:53;;;;;;;9.02;5.55;;;;;;;;;;7364669;19;20010;-72
2023/05/26 00:19:19;;;;;;;12.05;5.25;;;;;;;;;;7364575;19;20596;-71
2023/05/26 00:21:45;;;;;;;11.18;6.15;;;;;;;;;;7386805;19;20062;-71
2023/05/26 00:24:10;;;;;;;11.70;5.70;;;;;;;;;;7365247;19;20528;-72
2023/05/26 00:26:36;;;;;;;12.20;5.88;;;;;;;;;;7363864;19;20011;-71
2023/05/26 00:29:01;;;;;;;12.60;6.80;;;;;;;;;;7363147;19;20017;-71
2023/05/26 00:31:27;;;;;;;8.75;5.40;;;;;;;;;;7365375;19;20046;-72
2023/05/26 00:33:52;;;;;;;14.75;6.00;;;;;;;;;;7387467;19;20007;-72
2023/05/26 00:36:17;;;;;;;10.52;5.90;;;;;;;;;;7364471;19;20018;-72
2023/05/26 00:38:42;;;;;;;12.65;5.43;;;;;;;;;;7377463;19;20379;-72
2023/05/26 00:41:08;;;;;;;10.15;5.78;;;;;;;;;;7378080;19;20621;-71
2023/05/26 00:43:33;;;;;;;10.45;5.35;;;;;;;;;;7372981;19;20457;-71
2023/05/26 00:45:58;;;;;;;12.40;5.47;;;;;;;;;;7394487;19;20022;-71
2023/05/26 00:48:24;;;;;;;13.13;5.57;;;;;;;;;;7370581;19;20010;-71
2023/05/26 00:50:49;;;;;;;12.18;5.65;;;;;;;;;;7371528;19;20010;-72
2023/05/26 00:53:16;;;;;;;12.05;5.88;;;;;;;;;;7370914;19;20510;-72
2023/05/26 00:55:42;;;;;;;13.05;5.65;;;;;;;;;;7370872;19;20011;-71
2023/05/26 00:58:08;;;;;;;9.85;5.07;;;;;;;;;;7390148;19;20007;-72
2023/05/26 01:00:33;;;;;;;9.55;5.40;;;;;;;;;;7371060;19;20029;-71
2023/05/26 01:02:59;;;;;;;10.75;5.13;;;;;;;;;;7371639;19;20488;-72
2023/05/26 01:05:25;;;;;;;13.73;5.78;;;;;;;;;;7371899;19;20022;-72
2023/05/26 01:07:50;;;;;;;12.10;5.78;;;;;;;;;;7369127;19;20338;-71
2023/05/26 01:10:16;;;;;;;12.23;5.53;;;;;;;;;;7371251;19;20378;-71
2023/05/26 01:12:53;;;;;;;10.00;5.15;;;;;;;;;;7393619;19;20044;-71
2023/05/26 01:15:26;;;;;;;8.95;5.68;;;;;;;;;;7373278;19;19999;-71
2023/05/26 01:18:05;;;;;;;14.43;5.60;;;;;;;;;;7369334;19;20006;-72
2023/05/26 01:20:56;;;;;;;11.20;5.38;;;;;;;;;;7370983;19;20081;-72
2023/05/26 01:23:27;;;;;;;9.40;5.35;;;;;;;;;;7369721;19;20062;-71
2023/05/26 01:26:08;;;;;;;11.43;5.60;;;;;;;;;;7367036;19;20006;-71
2023/05/26 01:28:38;;;;;;;11.18;5.45;;;;;;;;;;7369878;19;19999;-72
2023/05/26 01:31:03;;;;;;;11.07;5.28;;;;;;;;;;7396003;19;20009;-72
2023/05/26 01:33:33;;;;;;;15.45;5.65;;;;;;;;;;7373247;19;20383;-71
2023/05/26 01:35:58;;;;;;;12.52;6.10;;;;;;;;;;7372234;19;20050;-72
2023/05/26 01:38:24;;;;;;;9.27;5.10;;;;;;;;;;7368801;19;20036;-71
2023/05/26 01:41:03;;;;;;;10.50;4.85;;;;;;;;;;7368544;19;20031;-71
2023/05/26 01:43:56;;;;;;;11.30;5.00;;;;;;;;;;7371483;19;20376;-71
2023/05/26 01:46:48;;;;;;;10.85;5.65;;;;;;;;;;7370231;19;20013;-71
2023/05/26 01:49:14;;;;;;;11.48;5.20;;;;;;;;;;7376941;19;20006;-71
2023/05/26 01:51:43;;;;;;;11.43;5.50;;;;;;;;;;7391856;19;20428;-71
2023/05/26 01:54:09;;;;;;;14.35;5.55;;;;;;;;;;7369055;19;20006;-72
2023/05/26 01:56:35;;;;;;;9.93;4.90;;;;;;;;;;7376967;19;20003;-71
2023/05/26 01:59:01;;;;;;;12.95;5.38;;;;;;;;;;7377388;19;20006;-71
2023/05/26 02:01:27;;;;;;;11.55;5.13;;;;;;;;;;7370297;19;20028;-70
2023/05/26 02:03:54;;;;;;;12.05;4.88;;;;;;;;;;7390944;19;20759;-71
2023/05/26 02:06:19;;;;;;;10.02;5.38;;;;;;;;;;7365687;19;20070;-71
2023/05/26 02:08:45;;;;;;;10.13;5.18;;;;;;;;;;7366798;19;20516;-71
2023/05/26 02:11:10;;;;;;;12.57;5.18;;;;;;;;;;7372618;19;20476;-72
2023/05/26 02:13:35;;;;;;;14.27;5.97;;;;;;;;;;7375455;19;20010;-71
2023/05/26 02:16:00;;;;;;;11.63;5.50;;;;;;;;;;7394109;19;19999;-72
2023/05/26 02:18:26;;;;;;;12.68;5.78;;;;;;;;;;7369547;19;20002;-71
2023/05/26 02:20:51;;;;;;;10.95;5.18;;;;;;;;;;7371430;19;20014;-71
2023/05/26 02:23:16;;;;;;;12.35;5.57;;;;;;;;;;7371309;19;20476;-71
2023/05/26 02:25:42;;;;;;;10.63;5.10;;;;;;;;;;7372448;19;20135;-71
2023/05/26 02:28:07;;;;;;;12.23;5.72;;;;;;;;;;7390835;19;20122;-72
2023/05/26 02:30:33;;;;;;;10.82;5.55;;;;;;;;;;7371571;19;20032;-71
2023/05/26 02:32:58;;;;;;;10.63;5.65;;;;;;;;;;7376215;19;20006;-72
2023/05/26 02:35:23;;;;;;;11.98;5.70;;;;;;;;;;7384471;19;20010;-72
2023/05/26 02:37:49;;;;;;;10.95;5.70;;;;;;;;;;7381146;19;20576;-72
2023/05/26 02:40:15;;;;;;;11.85;5.70;;;;;;;;;;7384809;19;20453;-71
2023/05/26 02:42:40;;;;;;;14.10;6.03;;;;;;;;;;7402415;19;20014;-72
2023/05/26 02:45:06;;;;;;;13.00;6.28;;;;;;;;;;7374939;19;20006;-72
2023/05/26 02:47:32;;;;;;;11.60;5.75;;;;;;;;;;7374265;19;20421;-72
2023/05/26 02:49:57;;;;;;;13.55;6.07;;;;;;;;;;7372994;19;20096;-71
2023/05/26 02:52:22;;;;;;;12.18;5.85;;;;;;;;;;7375625;19;20002;-71
2023/05/26 02:54:48;;;;;;;10.48;5.18;;;;;;;;;;7403821;19;20006;-72
2023/05/26 02:57:14;;;;;;;11.60;5.80;;;;;;;;;;7372465;19;20027;-73
2023/05/26 02:59:39;;;;;;;13.57;5.85;;;;;;;;;;7370663;19;20006;-71
2023/05/26 03:02:04;;;;;;;11.55;5.50;;;;;;;;;;7369376;19;20014;-71
2023/05/26 03:04:30;;;;;;;11.48;5.78;;;;;;;;;;7368211;19;20014;-71
2023/05/26 03:06:55;;;;;;;10.50;5.45;;;;;;;;;;7391291;19;20107;-71
2023/05/26 03:09:20;;;;;;;10.43;5.40;;;;;;;;;;7370364;19;20038;-71
2023/05/26 03:11:46;;;;;;;15.27;5.00;;;;;;;;;;7382553;19;20005;-70
2023/05/26 03:14:11;;;;;;;13.88;5.68;;;;;;;;;;7377346;19;20415;-72
2023/05/26 03:16:37;;;;;;;13.52;6.03;;;;;;;;;;7371739;19;20010;-71
2023/05/26 03:19:03;;;;;;;15.85;6.00;;;;;;;;;;7394525;19;20009;-72
2023/05/26 03:21:28;;;;;;;13.10;5.63;;;;;;;;;;7373281;19;20010;-72
2023/05/26 03:23:53;;;;;;;10.52;5.60;;;;;;;;;;7375422;19;20469;-71
2023/05/26 03:26:20;;;;;;;12.32;5.28;;;;;;;;;;7373233;19;20078;-71
2023/05/26 03:28:46;;;;;;;12.27;5.13;;;;;;;;;;7374712;19;20006;-71
2023/05/26 03:31:11;;;;;;;12.07;5.65;;;;;;;;;;7390667;19;20007;-71
2023/05/26 03:33:37;;;;;;;11.85;5.53;;;;;;;;;;7366163;19;20036;-71
2023/05/26 03:36:02;;;;;;;16.70;6.35;;;;;;;;;;7368100;19;20011;-71
2023/05/26 03:38:27;;;;;;;15.65;6.35;;;;;;;;;;7367567;19;20014;-71
2023/05/26 03:40:53;;;;;;;11.60;5.82;;;;;;;;;;7369232;19;20006;-71
2023/05/26 03:43:18;;;;;;;11.75;5.65;;;;;;;;;;7369612;19;19998;-70
2023/05/26 03:45:44;;;;;;;11.65;5.13;;;;;;;;;;7391988;19;20078;-71
2023/05/26 03:48:12;;;;;;;13.00;5.97;;;;;;;;;;7372633;19;20042;-72
2023/05/26 03:50:38;;;;;;;12.10;5.88;;;;;;;;;;7371920;19;20019;-72
2023/05/26 03:53:04;;;;;;;14.25;5.32;;;;;;;;;;7370533;19;20054;-70
2023/05/26 03:55:33;;;;;;;10.55;5.10;;;;;;;;;;7371716;19;20003;-71
2023/05/26 03:57:58;;;;;;;13.50;5.68;;;;;;;;;;7391966;19;19995;-70
2023/05/26 04:00:27;;;;;;;8.75;5.13;;;;;;;;;;7365658;19;20035;-72
2023/05/26 04:02:53;;;;;;;8.48;5.00;;;;;;;;;;7368891;19;20086;-71
2023/05/26 04:05:18;;;;;;;10.15;4.97;;;;;;;;;;7368952;19;20141;-72
2023/05/26 04:07:44;;;;;;;12.98;5.22;;;;;;;;;;7367360;19;20478;-72
2023/05/26 04:10:11;;;;;;;11.02;5.13;;;;;;;;;;7392685;19;20007;-71
2023/05/26 04:12:37;;;;;;;10.93;5.47;;;;;;;;;;7372379;19;20025;-72
2023/05/26 04:15:03;;;;;;;14.45;5.47;;;;;;;;;;7378288;19;20007;-71
2023/05/26 04:17:28;;;;;;;10.95;5.43;;;;;;;;;;7381378;19;20022;-72
2023/05/26 04:19:53;;;;;;;9.07;5.13;;;;;;;;;;7380683;19;20018;-72
2023/05/26 04:22:19;;;;;;;10.05;5.40;;;;;;;;;;7376851;19;20050;-72
2023/05/26 04:24:44;;;;;;;10.10;4.90;;;;;;;;;;7399127;19;20611;-71
2023/05/26 04:27:09;;;;;;;9.82;5.05;;;;;;;;;;7378066;19;20002;-72
2023/05/26 04:29:35;;;;;;;10.02;4.97;;;;;;;;;;7379198;19;20031;-72
2023/05/26 04:32:00;;;;;;;15.18;5.65;;;;;;;;;;7379713;19;20059;-72
2023/05/26 04:34:26;;;;;;;14.55;5.50;;;;;;;;;;7380510;19;20002;-71
2023/05/26 04:36:53;;;;;;;10.48;4.70;;;;;;;;;;7400030;19;20006;-72
2023/05/26 04:39:18;;;;;;;10.90;5.95;;;;;;;;;;7379620;19;20021;-71
2023/05/26 04:41:46;;;;;;;21.17;6.05;;;;;;;;;;7375887;19;20488;-71
2023/05/26 04:44:12;;;;;;;14.57;6.00;;;;;;;;;;7378778;19;20027;-71
2023/05/26 04:46:40;;;;;;;12.30;5.47;;;;;;;;;;7380443;19;20015;-73
2023/05/26 04:49:07;;;;;;;18.05;5.28;;;;;;;;;;7403958;19;20107;-72
2023/05/26 04:51:32;;;;;;;26.02;6.30;;;;;;;;;;7376934;19;20704;-72
2023/05/26 04:53:58;;;;;;;23.58;6.22;;;;;;;;;;7380783;19;20069;-71
2023/05/26 04:56:25;;;;;;;18.20;6.35;;;;;;;;;;7371616;19;20034;-71
2023/05/26 04:58:51;;;;;;;19.10;5.93;;;;;;;;;;7379289;19;20006;-71
2023/05/26 05:01:17;;;;;;;23.83;6.25;;;;;;;;;;7389969;19;20022;-72
2023/05/26 05:03:43;;;;;;;19.55;5.30;;;;;;;;;;7401432;19;20049;-72
2023/05/26 05:06:09;;;;;;;21.23;6.13;;;;;;;;;;7371368;19;20006;-72
2023/05/26 05:08:38;;;;;;;19.92;5.75;;;;;;;;;;7374168;19;20381;-72
2023/05/26 05:11:04;;;;;;;20.85;6.18;;;;;;;;;;7392176;19;20010;-71
2023/05/26 05:13:30;;;;;;;28.88;5.82;;;;;;;;;;7376158;19;20019;-71
2023/05/26 05:15:56;;;;;;;20.63;5.97;;;;;;;;;;7394729;19;20006;-72
2023/05/26 05:18:21;;;;;;;14.93;5.55;;;;;;;;;;7371990;19;20006;-72
2023/05/26 05:20:46;;;;;;;14.85;5.82;;;;;;;;;;7371572;19;20040;-72
2023/05/26 05:23:11;;;;;;;16.30;5.32;;;;;;;;;;7371299;19;20065;-71
2023/05/26 05:25:37;;;;;;;23.05;6.22;;;;;;;;;;7368419;19;20003;-72
2023/05/26 05:28:02;;;;;;;19.88;6.10;;;;;;;;;;7390440;19;20002;-72
2023/05/26 05:30:27;;;;;;;20.70;5.57;;;;;;;;;;7371022;19;20022;-71
2023/05/26 05:32:53;;;;;;;19.33;5.80;;;;;;;;;;7372822;19;20006;-71
2023/05/26 05:35:18;;;;;;;15.18;5.30;;;;;;;;;;7371690;19;20010;-71
2023/05/26 05:37:43;;;;;;;16.15;5.55;;;;;;;;;;7367941;19;20006;-72
2023/05/26 05:40:09;;;;;;;14.27;5.15;;;;;;;;;;7391855;19;19998;-72
2023/05/26 05:42:34;;;;;;;17.15;5.70;;;;;;;;;;7370448;19;20018;-71
2023/05/26 05:45:00;;;;;;;11.10;5.25;;;;;;;;;;7367603;19;20377;-71
2023/05/26 05:47:25;;;;;;;15.10;5.18;;;;;;;;;;7375694;19;20014;-71
2023/05/26 05:49:50;;;;;;;10.85;5.32;;;;;;;;;;7373580;19;20558;-72
2023/05/26 05:52:16;;;;;;;17.40;5.30;;;;;;;;;;7368185;19;20411;-71
2023/05/26 05:54:42;;;;;;;10.63;4.78;;;;;;;;;;7389323;19;20369;-71
2023/05/26 05:57:07;;;;;;;16.73;6.13;;;;;;;;;;7371200;19;20010;-71
2023/05/26 05:59:33;;;;;;;14.48;5.47;;;;;;;;;;7375341;19;20053;-71
2023/05/26 06:01:58;;;;;;;12.70;5.30;;;;;;;;;;7370251;19;20060;-71
2023/05/26 06:04:23;;;;;;;15.32;4.93;;;;;;;;;;7368280;19;20006;-72
2023/05/26 06:06:50;;;;;;;10.23;5.20;;;;;;;;;;7390106;19;20090;-71
2023/05/26 06:09:15;;;;;;;11.07;5.07;;;;;;;;;;7367563;19;20008;-71
2023/05/26 06:11:41;;;;;;;8.32;4.80;;;;;;;;;;7372590;19;20482;-72
2023/05/26 06:14:06;;;;;;;11.68;4.70;;;;;;;;;;7370667;19;20028;-72
2023/05/26 06:16:32;;;;;;;14.55;4.78;;;;;;;;;;7367888;19;20006;-71
2023/05/26 06:18:57;;;;;;;14.52;5.40;;;;;;;;;;7389020;19;20018;-71
2023/05/26 06:21:22;;;;;;;12.13;5.20;;;;;;;;;;7367046;19;20010;-71
2023/05/26 06:23:49;;;;;;;12.40;5.45;;;;;;;;;;7368530;19;20002;-72
2023/05/26 06:26:14;;;;;;;13.52;5.07;;;;;;;;;;7365035;19;20496;-71
2023/05/26 06:28:39;;;;;;;12.23;4.82;;;;;;;;;;7365130;19;20035;-71
2023/05/26 06:31:05;;;;;;;11.93;5.38;;;;;;;;;;7386879;19;20035;-71
2023/05/26 06:33:30;;;;;;;13.40;4.78;;;;;;;;;;7368433;19;20010;-71
2023/05/26 06:35:56;;;;;;;11.95;4.50;;;;;;;;;;7366722;19;20381;-71
2023/05/26 06:38:21;;;;;;;20.50;4.90;;;;;;;;;;7366526;19;20010;-71
2023/05/26 06:40:46;;;;;;;12.13;4.72;;;;;;;;;;7367731;19;20011;-71
2023/05/26 06:43:12;;;;;;;11.73;4.82;;;;;;;;;;7390853;19;20691;-72
2023/05/26 06:45:37;;;;;;;12.13;4.22;;;;;;;;;;7368700;19;20090;-72
2023/05/26 06:48:02;;;;;;;10.07;4.95;;;;;;;;;;7365428;19;20036;-72
2023/05/26 06:50:28;;;;;;;14.73;4.50;;;;;;;;;;7367706;19;20270;-72
2023/05/26 06:52:53;;;;;;;12.20;4.20;;;;;;;;;;7386706;19;20027;-74
2023/05/26 06:55:19;;;;;;;15.93;5.07;;;;;;;;;;7369033;19;20002;-75
2023/05/26 06:57:44;;;;;;;15.35;4.75;;;;;;;;;;7388402;19;20035;-75
2023/05/26 07:00:11;;;;;;;15.68;5.53;;;;;;;;;;7369134;19;20006;-75
2023/05/26 07:02:40;;;;;;;11.10;4.75;;;;;;;;;;7369138;19;20345;-75
2023/05/26 07:05:08;;;;;;;11.70;4.30;;;;;;;;;;7369868;19;20007;-75
2023/05/26 07:07:34;;;;;;;13.52;4.57;;;;;;;;;;7368040;19;20097;-74
2023/05/26 07:09:59;;;;;;;12.35;4.65;;;;;;;;;;7390460;19;20015;-75
2023/05/26 07:12:24;;;;;;;15.52;4.25;;;;;;;;;;7366186;19;20477;-75
2023/05/26 07:14:50;;;;;;;9.23;3.95;;;;;;;;;;7363634;19;20003;-75
2023/05/26 07:17:15;;;;;;;10.23;4.15;;;;;;;;;;7364257;19;20010;-73
2023/05/26 07:19:40;;;;;;;12.07;4.68;;;;;;;;;;7395006;19;20003;-74
2023/05/26 07:22:06;;;;;;;14.75;4.22;;;;;;;;;;7376673;19;20562;-75
2023/05/26 07:24:31;;;;;;;12.15;4.20;;;;;;;;;;7379393;19;20014;-75
2023/05/26 07:26:56;;;;;;;12.05;4.55;;;;;;;;;;7371458;19;19999;-75
2023/05/26 07:29:22;;;;;;;10.27;3.90;;;;;;;;;;7362671;19;20329;-74
2023/05/26 07:31:47;;;;;;;11.80;4.00;;;;;;;;;;7383624;19;20402;-75
2023/05/26 07:34:13;;;;;;;9.93;3.78;;;;;;;;;;7364947;19;20002;-74
2023/05/26 07:36:38;;;;;;;14.43;4.68;;;;;;;;;;7361675;19;20022;-75
2023/05/26 07:39:04;;;;;;;14.20;4.25;;;;;;;;;;7363028;19;20540;-74
2023/05/26 07:41:30;;;;;;;8.52;3.35;;;;;;;;;;7358285;19;20032;-73
2023/05/26 07:43:55;;;;;;;12.13;4.15;;;;;;;;;;7382390;19;20010;-74
2023/05/26 07:46:21;;;;;;;12.13;4.82;;;;;;;;;;7361150;19;20025;-75
2023/05/26 07:52:38;;;;;;;14.48;3.80;;;;;;;;;;7366292;19;20039;-74
2023/05/26 07:55:04;;;;;;;15.73;4.30;;;;;;;;;;7367376;19;20006;-75
2023/05/26 07:57:29;;;;;;;11.27;4.25;;;;;;;;;;7368552;19;20022;-76
2023/05/26 07:59:55;;;;;;;13.00;4.07;;;;;;;;;;7371948;19;20523;-76
2023/05/26 08:02:20;;;;;;;11.95;4.28;;;;;;;;;;7370267;19;20007;-75
2023/05/26 08:04:45;;;;;;;13.98;4.35;;;;;;;;;;7387227;19;20066;-76
2023/05/26 08:07:11;;;;;;;12.93;4.38;;;;;;;;;;7367814;19;20516;-76
2023/05/26 08:09:36;;;;;;;19.13;4.53;;;;;;;;;;7365391;19;19998;-75
2023/05/26 08:12:01;;;;;;;13.20;4.70;;;;;;;;;;7372818;19;20420;-74
2023/05/26 08:14:27;;;;;;;11.10;4.22;;;;;;;;;;7371136;19;20639;-70
2023/05/26 08:16:52;;;;;;;13.10;4.20;;;;;;;;;;7391350;19;20034;-78
2023/05/26 08:19:17;;;;;;;11.23;4.20;;;;;;;;;;7372998;19;20014;-79
2023/05/26 08:21:43;;;;;;;13.43;4.22;;;;;;;;;;7380611;19;20023;-79
2023/05/26 08:24:08;;;;;;;12.52;4.18;;;;;;;;;;7378360;19;20003;-79
2023/05/26 08:26:33;;;;;;;17.73;4.70;;;;;;;;;;7376457;19;20010;-78
2023/05/26 08:28:59;;;;;;;16.35;5.03;;;;;;;;;;7370888;19;20014;-79
2023/05/26 08:31:25;;;;;;;15.70;4.90;;;;;;;;;;7378069;19;20002;-78
2023/05/26 08:33:50;;;;;;;13.30;4.70;;;;;;;;;;7382336;19;20002;-79
2023/05/26 08:36:15;;;;;;;15.40;4.93;;;;;;;;;;7396884;19;20398;-78
2023/05/26 08:38:41;;;;;;;13.27;4.13;;;;;;;;;;7375227;19;20543;-77
2023/05/26 08:41:07;;;;;;;14.48;4.65;;;;;;;;;;7374864;19;20394;-79
2023/05/26 08:43:45;;;;;;;11.40;4.30;;;;;;;;;;7374814;19;20088;-78
2023/05/26 08:46:11;;;;;;;18.52;5.00;;;;;;;;;;7378208;19;20086;-79
2023/05/26 08:48:38;;;;;;;11.77;4.05;;;;;;;;;;7377761;19;20037;-79
2023/05/26 08:51:08;;;;;;;10.48;3.85;;;;;;;;;;7398438;19;20077;-79
2023/05/26 08:53:33;;;;;;;15.38;4.22;;;;;;;;;;7376584;19;20002;-79
2023/05/26 08:56:00;;;;;;;11.23;3.78;;;;;;;;;;7375567;19;20026;-79
2023/05/26 08:58:26;;;;;;;13.68;3.83;;;;;;;;;;7371994;19;20007;-78
2023/05/26 09:00:53;;;;;;;10.90;4.35;;;;;;;;;;7374905;19;20067;-77
2023/05/26 09:03:18;;;;;;;13.27;5.00;;;;;;;;;;7390962;19;20006;-79
2023/05/26 09:05:45;;;;;;;14.30;4.65;;;;;;;;;;7375455;19;20334;-76
2023/05/26 09:08:13;;;;;;;10.50;4.03;;;;;;;;;;7369972;19;20101;-75
2023/05/26 09:10:40;;;;;;;12.30;4.05;;;;;;;;;;7370280;19;20025;-76
2023/05/26 09:13:06;;;;;;;10.43;3.83;;;;;;;;;;7373498;19;20018;-76
2023/05/26 09:15:32;;;;;;;10.82;4.00;;;;;;;;;;7390361;19;20036;-77
2023/05/26 09:18:03;;;;;;;11.90;3.92;;;;;;;;;;7364172;19;20007;-75
2023/05/26 09:20:30;;;;;;;17.05;4.47;;;;;;;;;;7367496;19;20400;-75
2023/05/26 09:22:57;;;;;;;11.40;4.30;;;;;;;;;;7373310;19;20014;-75
2023/05/26 09:25:31;;;;;;;11.68;3.63;;;;;;;;;;7377070;19;20766;-76
2023/05/26 09:28:04;;;;;;;9.57;3.50;;;;;;;;;;7377260;19;20035;-76
2023/05/26 09:30:39;;;;;;;10.95;3.92;;;;;;;;;;7402710;19;20018;-75
2023/05/26 09:33:08;;;;;;;10.63;3.65;;;;;;;;;;7368446;19;20075;-75
2023/05/26 09:35:39;;;;;;;11.10;3.15;;;;;;;;;;7368991;19;20018;-76
2023/05/26 09:38:09;;;;;;;15.13;4.07;;;;;;;;;;7368952;19;20067;-75
2023/05/26 09:40:39;;;;;;;;;;;;;;;;;;7372181;19;20022;-74
2023/05/26 09:43:04;;;;;;;8.82;3.40;;;;;;;;;;7369869;19;20373;-75
2023/05/26 09:45:37;;;;;;;11.25;3.75;;;;;;;;;;7389988;19;20006;-75
2023/05/26 09:48:07;;;;;;;10.55;3.80;;;;;;;;;;7367372;19;20129;-76
2023/05/26 09:50:35;;;;;;;10.55;3.00;;;;;;;;;;7372940;19;20010;-76
2023/05/26 09:53:02;;;;;;;11.43;3.63;;;;;;;;;;7373005;19;20093;-73
2023/05/26 09:55:28;;;;;;;11.77;3.47;;;;;;;;;;7372171;19;20010;-75
2023/05/26 09:57:54;;;;;;;11.98;3.70;;;;;;;;;;7368099;19;20007;-75
2023/05/26 10:00:21;;;;;;;7.95;2.88;;;;;;;;;;7389233;19;20006;-76
2023/05/26 10:02:47;;;;;;;11.35;3.80;;;;;;;;;;7364251;19;20441;-75
2023/05/26 10:05:14;;;;;;;11.93;3.50;;;;;;;;;;7364729;19;20035;-74
2023/05/26 10:07:42;;;;;;;12.23;3.60;;;;;;;;;;7366986;19;20458;-76
2023/05/26 10:10:11;;;;;;;10.80;3.58;;;;;;;;;;7364255;19;20044;-75
2023/05/26 10:12:37;;;;;;;9.38;3.40;;;;;;;;;;7367738;19;20464;-77
2023/05/26 10:15:04;;;;;;;14.48;3.85;;;;;;;;;;7386790;19;20142;-76
2023/05/26 10:17:30;;;;;;;11.95;3.97;;;;;;;;;;7360119;19;20046;-75
2023/05/26 10:19:57;;;;;;;9.88;3.60;;;;;;;;;;7364389;19;20094;-74
2023/05/26 10:22:22;;;;;;;11.75;3.90;;;;;;;;;;7368134;19;20044;-76
2023/05/26 10:24:55;;;;;;;11.20;3.57;;;;;;;;;;7370905;19;20687;-75
2023/05/26 10:27:24;;;;;;;10.57;3.50;;;;;;;;;;7387696;19;20264;-75
2023/05/26 10:29:58;;;;;;;16.15;4.15;;;;;;;;;;7365471;19;20741;-75
2023/05/26 10:32:43;;;;;;;14.88;4.07;;;;;;;;;;7368991;19;20018;-77
2023/05/26 10:35:28;;;;;;;11.65;3.80;;;;;;;;;;7365500;19;20489;-75
2023/05/26 10:38:03;;;;;;;9.35;3.70;;;;;;;;;;7373865;19;20396;-76
2023/05/26 10:40:45;;;;;;;11.07;3.50;;;;;;;;;;7367276;19;20321;-75
2023/05/26 10:43:12;;;;;;;9.65;3.45;;;;;;;;;;7367960;19;20067;-76
2023/05/26 10:45:45;;;;;;;12.82;3.55;;;;;;;;;;7358753;19;20090;-75
2023/05/26 10:48:11;;;;;;;10.60;3.90;;;;;;;;;;7379854;19;20034;-76
2023/05/26 10:50:54;;;;;;;10.18;4.50;;;;;;;;;;7363294;19;20028;-75
2023/05/26 10:53:25;;;;;;;10.25;3.78;;;;;;;;;;7365942;19;20006;-74
2023/05/26 10:55:58;;;;;;;10.77;3.70;;;;;;;;;;7364914;19;20003;-76
2023/05/26 10:58:27;;;;;;;11.23;3.65;;;;;;;;;;7362083;19;20089;-76
2023/05/26 11:00:58;;;;;;;9.43;3.13;;;;;;;;;;7368036;19;20012;-74
2023/05/26 11:03:41;;;;;;;8.65;3.35;;;;;;;;;;7387654;19;20015;-75
2023/05/26 11:06:07;;;;;;;12.45;3.92;;;;;;;;;;7362460;19;20010;-76
2023/05/26 11:08:39;;;;;;;10.75;3.60;;;;;;;;;;7363613;19;20120;-76
2023/05/26 11:11:07;;;;;;;11.23;3.17;;;;;;;;;;7366532;19;20021;-77
2023/05/26 11:13:46;;;;;;;15.43;3.88;;;;;;;;;;7367485;19;20069;-74
2023/05/26 11:16:19;;;;;;;10.93;3.85;;;;;;;;;;7364682;19;20023;-75
2023/05/26 11:18:49;;;;;;;11.05;3.50;;;;;;;;;;7365332;19;20531;-75
2023/05/26 11:21:17;;;;;;;10.23;3.45;;;;;;;;;;7384788;19;20014;-76
2023/05/26 11:23:44;;;;;;;11.13;3.60;;;;;;;;;;7365152;19;20006;-76
2023/05/26 11:26:15;;;;;;;10.63;3.38;;;;;;;;;;7367852;19;20006;-76
2023/05/26 11:28:45;;;;;;;11.10;3.20;;;;;;;;;;7365050;19;20365;-76
2023/05/26 11:31:15;;;;;;;11.85;3.60;;;;;;;;;;7364758;19;20014;-75
2023/05/26 11:33:43;;;;;;;13.23;4.20;;;;;;;;;;7365881;19;20727;-75
2023/05/26 11:36:11;;;;;;;14.85;3.38;;;;;;;;;;7388672;19;20672;-74
2023/05/26 11:38:37;;;;;;;12.23;3.65;;;;;;;;;;7364286;19;20082;-76
2023/05/26 11:41:10;;;;;;;12.18;3.92;;;;;;;;;;7366020;19;20007;-76
2023/05/26 11:43:37;;;;;;;11.05;3.38;;;;;;;;;;7364714;19;20038;-75
2023/05/26 11:46:09;;;;;;;10.32;3.45;;;;;;;;;;7364590;19;20406;-76
2023/05/26 11:48:39;;;;;;;7.22;2.63;;;;;;;;;;7363078;19;20022;-75
2023/05/26 11:51:07;;;;;;;11.50;3.63;;;;;;;;;;7388786;19;20013;-76
2023/05/26 11:53:33;;;;;;;7.85;3.28;;;;;;;;;;7368437;19;20014;-76
2023/05/26 11:56:08;;;;;;;8.63;3.35;;;;;;;;;;7365712;19;20010;-77
2023/05/26 11:58:53;;;;;;;11.65;3.05;;;;;;;;;;7365481;19;20502;-76
2023/05/26 12:01:20;;;;;;;11.07;2.97;;;;;;;;;;7368339;19;20010;-75
2023/05/26 12:03:46;;;;;;;11.68;3.72;;;;;;;;;;7367322;19;20533;-75
2023/05/26 12:06:20;;;;;;;10.95;3.08;;;;;;;;;;7390419;19;20010;-76
2023/05/26 12:08:57;;;;;;;8.88;3.00;;;;;;;;;;7367190;19;20006;-75
2023/05/26 12:11:23;;;;;;;7.60;3.50;;;;;;;;;;7369115;19;20467;-74
2023/05/26 12:13:59;;;;;;;7.88;3.38;;;;;;;;;;7368664;19;20015;-75
2023/05/26 12:16:28;;;;;;;9.68;2.90;;;;;;;;;;7363901;19;20018;-75
2023/05/26 12:18:56;;;;;;;10.38;3.55;;;;;;;;;;7361561;19;19995;-75
2023/05/26 12:21:23;;;;;;;8.52;3.22;;;;;;;;;;7393449;19;20003;-75
2023/05/26 12:23:49;;;;;;;10.80;3.13;;;;;;;;;;7374599;19;20018;-76
2023/05/26 12:26:15;;;;;;;12.20;3.72;;;;;;;;;;7378232;19;20010;-74
2023/05/26 12:28:41;;;;;;;4.90;2.35;;;;;;;;;;7374485;19;20011;-75
2023/05/26 12:31:06;;;;;;;12.02;3.65;;;;;;;;;;7363982;19;20011;-75
2023/05/26 12:33:32;;;;;;;6.68;2.85;;;;;;;;;;7391555;19;20018;-74
2023/05/26 12:35:57;;;;;;;10.15;3.60;;;;;;;;;;7373304;19;20014;-75
2023/05/26 12:38:23;;;;;;;7.22;2.97;;;;;;;;;;7370246;19;20063;-76
2023/05/26 12:40:48;;;;;;;11.43;3.33;;;;;;;;;;7376281;19;20108;-75
2023/05/26 12:43:14;;;;;;;9.80;3.20;;;;;;;;;;7374492;19;20010;-75
2023/05/26 12:45:39;;;;;;;10.07;2.83;;;;;;;;;;7375159;19;20014;-75
2023/05/26 12:48:05;;;;;;;10.48;3.17;;;;;;;;;;7390088;19;20039;-75
2023/05/26 12:50:30;;;;;;;13.23;3.63;;;;;;;;;;7373334;19;20010;-76
2023/05/26 12:52:56;;;;;;;16.55;3.58;;;;;;;;;;7365816;19;20493;-71
2023/05/26 12:55:23;;;;;;;8.10;3.22;;;;;;;;;;7368860;19;20066;-71
2023/05/26 12:57:48;;;;;;;10.82;3.30;;;;;;;;;;7368939;19;20010;-71
2023/05/26 13:00:15;;;;;;;9.43;2.83;;;;;;;;;;7394757;19;20023;-72
2023/05/26 13:02:40;;;;;;;9.45;2.72;;;;;;;;;;7373068;19;20459;-71
2023/05/26 13:05:06;;;;;;;13.75;3.75;;;;;;;;;;7368553;19;20018;-72
2023/05/26 13:07:31;;;;;;;10.20;3.25;;;;;;;;;;7370641;19;20506;-71
2023/05/26 13:09:57;;;;;;;9.07;2.80;;;;;;;;;;7370548;19;20014;-71
2023/05/26 13:12:23;;;;;;;8.80;3.10;;;;;;;;;;7395776;19;20011;-71
2023/05/26 13:14:49;;;;;;;16.30;3.70;;;;;;;;;;7371835;19;20007;-71
2023/05/26 13:17:14;;;;;;;12.40;3.20;;;;;;;;;;7371609;19;20480;-71
2023/05/26 13:19:40;;;;;;;10.18;3.13;;;;;;;;;;7367760;19;20014;-71
2023/05/26 13:22:05;;;;;;;8.73;3.15;;;;;;;;;;7368725;19;20067;-71
2023/05/26 13:24:30;;;;;;;12.10;3.33;;;;;;;;;;7390926;19;20477;-71
2023/05/26 13:26:56;;;;;;;7.22;2.70;;;;;;;;;;7369361;19;20070;-71
2023/05/26 13:29:21;;;;;;;14.68;3.08;;;;;;;;;;7372169;19;20018;-71
2023/05/26 13:31:46;;;;;;;10.43;3.50;;;;;;;;;;7375310;19;20010;-71
2023/05/26 13:34:12;;;;;;;17.05;3.38;;;;;;;;;;7375743;19;20027;-72
2023/05/26 13:36:40;;;;;;;9.23;2.60;;;;;;;;;;7379744;19;20002;-71
2023/05/26 13:39:05;;;;;;;7.95;3.15;;;;;;;;;;7401677;19;20030;-71
2023/05/26 13:41:30;;;;;;;7.15;2.63;;;;;;;;;;7375281;19;20010;-71
2023/05/26 13:43:56;;;;;;;8.77;3.10;;;;;;;;;;7375688;19;20065;-72
2023/05/26 13:46:21;;;;;;;11.90;3.53;;;;;;;;;;7373531;19;20036;-72
2023/05/26 13:48:46;;;;;;;7.57;2.78;;;;;;;;;;7371638;19;20020;-72
2023/05/26 13:51:12;;;;;;;13.23;3.58;;;;;;;;;;7394530;19;20027;-72
2023/05/26 13:53:37;;;;;;;10.80;3.08;;;;;;;;;;7372747;19;20077;-72
2023/05/26 13:56:02;;;;;;;10.90;3.28;;;;;;;;;;7371657;19;20018;-72
2023/05/26 13:58:28;;;;;;;14.65;3.88;;;;;;;;;;7367230;19;20010;-71
2023/05/26 14:00:53;;;;;;;11.18;3.30;;;;;;;;;;7374063;19;20043;-72
2023/05/26 14:03:19;;;;;;;12.05;3.38;;;;;;;;;;7392632;19;20003;-71
2023/05/26 14:05:44;;;;;;;11.40;3.22;;;;;;;;;;7373181;19;20007;-71
2023/05/26 14:08:10;;;;;;;13.00;3.55;;;;;;;;;;7371963;19;20006;-71
2023/05/26 14:10:36;;;;;;;5.97;2.20;;;;;;;;;;7374434;19;20009;-71
2023/05/26 14:13:01;;;;;;;10.00;2.67;;;;;;;;;;7375453;19;20014;-71
2023/05/26 14:15:28;;;;;;;8.73;3.05;;;;;;;;;;7394091;19;20006;-71
2023/05/26 14:17:54;;;;;;;15.70;3.67;;;;;;;;;;7369501;19;20018;-71
2023/05/26 14:20:20;;;;;;;11.95;3.03;;;;;;;;;;7371324;19;20018;-71
2023/05/26 14:22:45;;;;;;;12.75;3.83;;;;;;;;;;7371924;19;20007;-71
2023/05/26 14:25:11;;;;;;;12.55;3.20;;;;;;;;;;7371737;19;20010;-71
2023/05/26 14:27:36;;;;;;;10.07;3.25;;;;;;;;;;7370958;19;20010;-72
2023/05/26 14:30:02;;;;;;;9.95;3.00;;;;;;;;;;7393097;19;20009;-71
2023/05/26 14:32:27;;;;;;;14.60;4.03;;;;;;;;;;7371355;19;20002;-72
2023/05/26 14:34:53;;;;;;;15.13;3.25;;;;;;;;;;7371621;19;20015;-72